Bar Harbor, ME (04609)

8:05 PM EDT on July 21, 2017 (GMT -0400)
College of the Atlantic | | Change Station
Active Advisory: Special Weather Statement

Elev 52 ft 44.39 °N, 68.22 °W | Updated 29 seconds ago

Clear
Clear
75.5 °F
Feels Like 78 °F
N
3.7
Wind Variable Wind from East
Gusts 6.0 mph

Today
High -- | Low -- °F
--% Chance of Precip.
Yesterday
High -- | Low -- °F
Precip. -- in
Pressure 29.73 in
Visibility 10.0 miles
Clouds Clear
Heat Index 78 °F
Dew Point 60 °F
Humidity 60%
Rainfall 0.00 in
Snow Depth Not available.
5:08 AM 8:09 PM
Waning Crescent, 3% visible
METAR KBHB 212356Z AUTO 20007KT 10SM CLR 22/17 A2972 RMK AO2 SLP066 T02220167 10289 20222 53003 $
Pressure 29.73 in
Visibility 10.0 miles
Clouds Clear
Heat Index 78 °F
Dew Point 60 °F
Humidity 60%
Rainfall 0.00 in
Snow Depth Not available.
5:08 AM 8:09 PM
Waning Crescent, 3% visible
METAR KBHB 212356Z AUTO 20007KT 10SM CLR 22/17 A2972 RMK AO2 SLP066 T02220167 10289 20222 53003 $

Get Your Daily Forecast Email!

Thanks for signing up!

Be on the lookout for a verification email in your inbox.

You'll start receiving severe weather alerts in your inbox..

×

10-Day Weather Forecast

Almanac

Astronomy

Jul. 21, 2017 Rise Set
Actual Time
Civil Twilight
Nautical Twilight
Astronomical Twilight
Moon
Length of Visible Light
Length of Day
Tomorrow will be .
, % of the Moon is Illuminated

Today's Extremes

State Highs State Lows

Community

WunderPhotos

Category 6

Welcome to Category 6. This is the collective home for Weather Underground's featured writeups by Dr. Jeff Masters (right), Bob Henson (left), Chris Burt, and other regular contributors.

Nearby

Air Quality

  Air Quality AQ Index Pollutant
Not available.

Snow Depth

Station Depth Elevation

Earthquake Activity

City Distance Mag. Time & Date
Minimum magnitude displayed is 2.5.

Coastal Water Temperatures

Place Temperature

Stations

Nearby Weather Stations

Station Location Temp. Windchill Dew Point Humidity Wind Precip. Elev Updated Type
                   

Watches & Warnings

Special Weather Statement
Issued: 8:00 PM EDT Jul. 21, 2017 – National Weather Service

... Beach hazards statement has expired...


Cb